sensor_id;sensor_type;location;lat;lon;timestamp;temperature;humidity
66312;HTU21D;53114;51.138;6.008;2024-02-23T00:00:06;6.63;97.87
66312;HTU21D;53114;51.138;6.008;2024-02-23T00:02:33;6.63;98.92
66312;HTU21D;53114;51.138;6.008;2024-02-23T00:04:59;6.64;98.84
66312;HTU21D;53114;51.138;6.008;2024-02-23T00:07:25;6.64;99.52
66312;HTU21D;53114;51.138;6.008;2024-02-23T00:09:51;6.69;99.98
66312;HTU21D;53114;51.138;6.008;2024-02-23T00:12:17;6.69;99.09
66312;HTU21D;53114;51.138;6.008;2024-02-23T00:14:42;6.74;97.21
66312;HTU21D;53114;51.138;6.008;2024-02-23T00:17:08;6.73;98.94
66312;HTU21D;53114;51.138;6.008;2024-02-23T00:19:34;6.71;97.90
66312;HTU21D;53114;51.138;6.008;2024-02-23T00:22:00;6.70;97.34
66312;HTU21D;53114;51.138;6.008;2024-02-23T00:24:26;6.68;97.06
66312;HTU21D;53114;51.138;6.008;2024-02-23T00:26:52;6.65;97.27
66312;HTU21D;53114;51.138;6.008;2024-02-23T00:29:18;6.64;96.55
66312;HTU21D;53114;51.138;6.008;2024-02-23T00:31:44;6.64;96.34
66312;HTU21D;53114;51.138;6.008;2024-02-23T00:34:13;6.59;95.89
66312;HTU21D;53114;51.138;6.008;2024-02-23T00:36:41;6.55;93.49
66312;HTU21D;53114;51.138;6.008;2024-02-23T00:39:07;6.54;92.46
66312;HTU21D;53114;51.138;6.008;2024-02-23T00:41:34;6.58;96.88
66312;HTU21D;53114;51.138;6.008;2024-02-23T00:44:01;6.65;94.55
66312;HTU21D;53114;51.138;6.008;2024-02-23T00:46:27;6.63;94.72
66312;HTU21D;53114;51.138;6.008;2024-02-23T00:48:53;6.68;94.15
66312;HTU21D;53114;51.138;6.008;2024-02-23T00:51:20;6.68;92.71
66312;HTU21D;53114;51.138;6.008;2024-02-23T00:53:45;6.72;92.89
66312;HTU21D;53114;51.138;6.008;2024-02-23T00:56:12;6.72;92.82
66312;HTU21D;53114;51.138;6.008;2024-02-23T00:58:39;6.71;93.46
66312;HTU21D;53114;51.138;6.008;2024-02-23T01:01:05;6.69;93.11
66312;HTU21D;53114;51.138;6.008;2024-02-23T01:03:31;6.68;92.77
66312;HTU21D;53114;51.138;6.008;2024-02-23T01:05:57;6.61;91.18
66312;HTU21D;53114;51.138;6.008;2024-02-23T01:08:23;6.61;94.12
66312;HTU21D;53114;51.138;6.008;2024-02-23T01:10:48;6.56;94.80
66312;HTU21D;53114;51.138;6.008;2024-02-23T01:13:14;6.54;95.88
66312;HTU21D;53114;51.138;6.008;2024-02-23T01:15:41;6.46;96.97
66312;HTU21D;53114;51.138;6.008;2024-02-23T01:18:07;6.41;98.63
66312;HTU21D;53114;51.138;6.008;2024-02-23T01:20:34;6.44;98.92
66312;HTU21D;53114;51.138;6.008;2024-02-23T01:23:00;6.40;99.00
66312;HTU21D;53114;51.138;6.008;2024-02-23T01:25:26;6.43;99.18
66312;HTU21D;53114;51.138;6.008;2024-02-23T01:27:52;6.41;99.26
66312;HTU21D;53114;51.138;6.008;2024-02-23T01:30:18;6.49;99.67
66312;HTU21D;53114;51.138;6.008;2024-02-23T01:32:45;6.48;99.66
66312;HTU21D;53114;51.138;6.008;2024-02-23T01:35:11;6.49;99.55
66312;HTU21D;53114;51.138;6.008;2024-02-23T01:37:37;6.46;95.83
66312;HTU21D;53114;51.138;6.008;2024-02-23T01:40:04;6.53;96.21
66312;HTU21D;53114;51.138;6.008;2024-02-23T01:42:29;6.59;98.10
66312;HTU21D;53114;51.138;6.008;2024-02-23T01:44:55;6.57;95.65
66312;HTU21D;53114;51.138;6.008;2024-02-23T01:47:23;6.53;96.73
66312;HTU21D;53114;51.138;6.008;2024-02-23T01:49:51;6.46;96.53
66312;HTU21D;53114;51.138;6.008;2024-02-23T01:52:18;6.38;95.97
66312;HTU21D;53114;51.138;6.008;2024-02-23T01:54:44;6.33;97.38
66312;HTU21D;53114;51.138;6.008;2024-02-23T01:57:11;6.36;96.79
66312;HTU21D;53114;51.138;6.008;2024-02-23T01:59:38;6.30;96.95
66312;HTU21D;53114;51.138;6.008;2024-02-23T02:02:04;6.34;96.78
66312;HTU21D;53114;51.138;6.008;2024-02-23T02:04:31;6.34;97.96
66312;HTU21D;53114;51.138;6.008;2024-02-23T02:07:00;6.35;96.61
66312;HTU21D;53114;51.138;6.008;2024-02-23T02:09:27;6.41;96.23
66312;HTU21D;53114;51.138;6.008;2024-02-23T02:11:52;6.39;96.43
66312;HTU21D;53114;51.138;6.008;2024-02-23T02:14:18;6.33;95.57
66312;HTU21D;53114;51.138;6.008;2024-02-23T02:16:45;6.35;96.80
66312;HTU21D;53114;51.138;6.008;2024-02-23T02:19:12;6.44;95.76
66312;HTU21D;53114;51.138;6.008;2024-02-23T02:21:38;6.50;95.23
66312;HTU21D;53114;51.138;6.008;2024-02-23T02:24:05;6.46;94.74
66312;HTU21D;53114;51.138;6.008;2024-02-23T02:26:32;6.40;94.41
66312;HTU21D;53114;51.138;6.008;2024-02-23T02:28:58;6.38;95.63
66312;HTU21D;53114;51.138;6.008;2024-02-23T02:31:24;6.33;94.40
66312;HTU21D;53114;51.138;6.008;2024-02-23T02:33:50;6.35;96.01
66312;HTU21D;53114;51.138;6.008;2024-02-23T02:36:16;6.28;93.72
66312;HTU21D;53114;51.138;6.008;2024-02-23T02:38:42;6.30;96.89
66312;HTU21D;53114;51.138;6.008;2024-02-23T02:41:08;6.35;96.17
66312;HTU21D;53114;51.138;6.008;2024-02-23T02:43:34;6.35;93.62
66312;HTU21D;53114;51.138;6.008;2024-02-23T02:46:00;6.31;95.38
66312;HTU21D;53114;51.138;6.008;2024-02-23T02:48:26;6.26;96.79
66312;HTU21D;53114;51.138;6.008;2024-02-23T02:50:52;6.31;95.72
66312;HTU21D;53114;51.138;6.008;2024-02-23T02:53:18;6.35;94.52
66312;HTU21D;53114;51.138;6.008;2024-02-23T02:55:45;6.37;94.99
66312;HTU21D;53114;51.138;6.008;2024-02-23T02:58:11;6.38;93.95
66312;HTU21D;53114;51.138;6.008;2024-02-23T03:00:38;6.35;93.93
66312;HTU21D;53114;51.138;6.008;2024-02-23T03:03:05;6.33;91.72
66312;HTU21D;53114;51.138;6.008;2024-02-23T03:05:31;6.26;89.29
66312;HTU21D;53114;51.138;6.008;2024-02-23T03:07:57;6.25;93.61
66312;HTU21D;53114;51.138;6.008;2024-02-23T03:10:22;6.24;94.19
66312;HTU21D;53114;51.138;6.008;2024-02-23T03:12:48;6.19;87.00
66312;HTU21D;53114;51.138;6.008;2024-02-23T03:15:14;6.38;93.87
66312;HTU21D;53114;51.138;6.008;2024-02-23T03:17:40;6.52;92.50
66312;HTU21D;53114;51.138;6.008;2024-02-23T03:20:07;6.53;90.28
66312;HTU21D;53114;51.138;6.008;2024-02-23T03:22:39;6.58;91.33
66312;HTU21D;53114;51.138;6.008;2024-02-23T03:25:06;6.54;87.67
66312;HTU21D;53114;51.138;6.008;2024-02-23T03:27:38;6.57;86.82
66312;HTU21D;53114;51.138;6.008;2024-02-23T03:30:05;6.49;88.76
66312;HTU21D;53114;51.138;6.008;2024-02-23T03:32:31;6.60;88.01
66312;HTU21D;53114;51.138;6.008;2024-02-23T03:35:06;6.66;89.38
66312;HTU21D;53114;51.138;6.008;2024-02-23T03:37:32;6.68;86.66
66312;HTU21D;53114;51.138;6.008;2024-02-23T03:39:58;6.76;88.13
66312;HTU21D;53114;51.138;6.008;2024-02-23T03:42:25;6.82;87.73
66312;HTU21D;53114;51.138;6.008;2024-02-23T03:44:52;6.81;85.70
66312;HTU21D;53114;51.138;6.008;2024-02-23T03:47:18;6.82;85.53
66312;HTU21D;53114;51.138;6.008;2024-02-23T03:49:43;6.83;85.20
66312;HTU21D;53114;51.138;6.008;2024-02-23T03:52:09;6.82;83.10
66312;HTU21D;53114;51.138;6.008;2024-02-23T03:54:35;6.82;86.40
66312;HTU21D;53114;51.138;6.008;2024-02-23T03:57:01;6.70;83.18
66312;HTU21D;53114;51.138;6.008;2024-02-23T03:59:28;6.80;86.19
66312;HTU21D;53114;51.138;6.008;2024-02-23T04:01:54;6.67;84.71
66312;HTU21D;53114;51.138;6.008;2024-02-23T04:04:20;6.78;86.27
66312;HTU21D;53114;51.138;6.008;2024-02-23T04:06:46;6.68;84.74
66312;HTU21D;53114;51.138;6.008;2024-02-23T04:09:12;6.55;83.04
66312;HTU21D;53114;51.138;6.008;2024-02-23T04:11:38;6.58;83.39
66312;HTU21D;53114;51.138;6.008;2024-02-23T04:14:04;6.58;85.67
66312;HTU21D;53114;51.138;6.008;2024-02-23T04:16:32;6.51;85.29
66312;HTU21D;53114;51.138;6.008;2024-02-23T04:18:58;6.51;86.86
66312;HTU21D;53114;51.138;6.008;2024-02-23T04:21:25;6.63;85.54
66312;HTU21D;53114;51.138;6.008;2024-02-23T04:23:51;6.68;84.56
66312;HTU21D;53114;51.138;6.008;2024-02-23T04:26:17;6.78;83.96
66312;HTU21D;53114;51.138;6.008;2024-02-23T04:28:43;6.78;82.94
66312;HTU21D;53114;51.138;6.008;2024-02-23T04:31:09;6.83;82.39
66312;HTU21D;53114;51.138;6.008;2024-02-23T04:33:36;6.86;81.47
66312;HTU21D;53114;51.138;6.008;2024-02-23T04:36:03;6.72;81.27
66312;HTU21D;53114;51.138;6.008;2024-02-23T04:38:30;6.75;80.36
66312;HTU21D;53114;51.138;6.008;2024-02-23T04:40:56;6.75;81.64
66312;HTU21D;53114;51.138;6.008;2024-02-23T04:43:23;6.64;82.63
66312;HTU21D;53114;51.138;6.008;2024-02-23T04:45:49;6.60;82.86
66312;HTU21D;53114;51.138;6.008;2024-02-23T04:48:15;6.48;83.06
66312;HTU21D;53114;51.138;6.008;2024-02-23T04:50:41;6.38;83.68
66312;HTU21D;53114;51.138;6.008;2024-02-23T04:53:07;6.43;83.72
66312;HTU21D;53114;51.138;6.008;2024-02-23T04:55:33;6.54;84.68
66312;HTU21D;53114;51.138;6.008;2024-02-23T04:57:59;6.60;83.00
66312;HTU21D;53114;51.138;6.008;2024-02-23T05:00:25;6.66;82.54
66312;HTU21D;53114;51.138;6.008;2024-02-23T05:03:01;6.73;81.90
66312;HTU21D;53114;51.138;6.008;2024-02-23T05:05:32;6.74;81.71
66312;HTU21D;53114;51.138;6.008;2024-02-23T05:07:58;6.72;82.29
66312;HTU21D;53114;51.138;6.008;2024-02-23T05:10:25;6.81;80.31
66312;HTU21D;53114;51.138;6.008;2024-02-23T05:12:51;6.84;81.25
66312;HTU21D;53114;51.138;6.008;2024-02-23T05:15:17;6.86;82.78
66312;HTU21D;53114;51.138;6.008;2024-02-23T05:17:42;6.73;83.61
66312;HTU21D;53114;51.138;6.008;2024-02-23T05:20:09;6.81;82.74
66312;HTU21D;53114;51.138;6.008;2024-02-23T05:22:37;6.71;82.73
66312;HTU21D;53114;51.138;6.008;2024-02-23T05:25:03;6.70;83.24
66312;HTU21D;53114;51.138;6.008;2024-02-23T05:27:31;6.75;80.79
66312;HTU21D;53114;51.138;6.008;2024-02-23T05:29:57;6.71;80.26
66312;HTU21D;53114;51.138;6.008;2024-02-23T05:32:23;6.79;81.18
66312;HTU21D;53114;51.138;6.008;2024-02-23T05:34:49;6.80;80.86
66312;HTU21D;53114;51.138;6.008;2024-02-23T05:37:17;6.69;79.62
66312;HTU21D;53114;51.138;6.008;2024-02-23T05:39:43;6.82;81.55
66312;HTU21D;53114;51.138;6.008;2024-02-23T05:42:12;6.80;80.19
66312;HTU21D;53114;51.138;6.008;2024-02-23T05:44:39;6.84;80.57
66312;HTU21D;53114;51.138;6.008;2024-02-23T05:47:05;6.71;81.24
66312;HTU21D;53114;51.138;6.008;2024-02-23T05:49:31;6.78;80.40
66312;HTU21D;53114;51.138;6.008;2024-02-23T05:51:57;6.79;80.28
66312;HTU21D;53114;51.138;6.008;2024-02-23T05:54:23;6.81;80.15
66312;HTU21D;53114;51.138;6.008;2024-02-23T05:56:49;6.96;81.48
66312;HTU21D;53114;51.138;6.008;2024-02-23T05:59:15;6.90;80.27
66312;HTU21D;53114;51.138;6.008;2024-02-23T06:01:41;6.95;80.35
66312;HTU21D;53114;51.138;6.008;2024-02-23T06:04:07;6.89;79.78
66312;HTU21D;53114;51.138;6.008;2024-02-23T06:06:33;6.88;79.34
66312;HTU21D;53114;51.138;6.008;2024-02-23T06:08:59;6.86;78.47
66312;HTU21D;53114;51.138;6.008;2024-02-23T06:11:25;6.99;80.02
66312;HTU21D;53114;51.138;6.008;2024-02-23T06:13:51;7.03;79.66
66312;HTU21D;53114;51.138;6.008;2024-02-23T06:16:17;6.88;79.85
66312;HTU21D;53114;51.138;6.008;2024-02-23T06:18:43;6.78;79.45
66312;HTU21D;53114;51.138;6.008;2024-02-23T06:21:17;6.78;80.75
66312;HTU21D;53114;51.138;6.008;2024-02-23T06:23:44;6.76;80.88
66312;HTU21D;53114;51.138;6.008;2024-02-23T06:26:11;6.81;80.85
66312;HTU21D;53114;51.138;6.008;2024-02-23T06:28:37;6.71;80.60
66312;HTU21D;53114;51.138;6.008;2024-02-23T06:31:05;6.72;80.42
66312;HTU21D;53114;51.138;6.008;2024-02-23T06:33:31;6.74;81.24
66312;HTU21D;53114;51.138;6.008;2024-02-23T06:35:58;6.73;80.82
66312;HTU21D;53114;51.138;6.008;2024-02-23T06:38:23;6.81;79.15
66312;HTU21D;53114;51.138;6.008;2024-02-23T06:40:49;6.83;77.58
66312;HTU21D;53114;51.138;6.008;2024-02-23T06:43:15;6.83;79.21
66312;HTU21D;53114;51.138;6.008;2024-02-23T06:45:41;6.78;78.20
66312;HTU21D;53114;51.138;6.008;2024-02-23T06:48:08;6.97;78.79
66312;HTU21D;53114;51.138;6.008;2024-02-23T06:50:35;7.08;79.04
66312;HTU21D;53114;51.138;6.008;2024-02-23T06:53:01;6.99;76.92
66312;HTU21D;53114;51.138;6.008;2024-02-23T06:55:28;7.04;77.19
66312;HTU21D;53114;51.138;6.008;2024-02-23T06:57:54;7.04;76.31
66312;HTU21D;53114;51.138;6.008;2024-02-23T07:00:21;7.09;77.89
66312;HTU21D;53114;51.138;6.008;2024-02-23T07:02:47;7.03;76.81
66312;HTU21D;53114;51.138;6.008;2024-02-23T07:05:13;7.09;77.92
66312;HTU21D;53114;51.138;6.008;2024-02-23T07:07:40;6.99;77.59
66312;HTU21D;53114;51.138;6.008;2024-02-23T07:10:07;7.12;77.49
66312;HTU21D;53114;51.138;6.008;2024-02-23T07:12:33;7.11;76.86
66312;HTU21D;53114;51.138;6.008;2024-02-23T07:14:59;7.11;77.99
66312;HTU21D;53114;51.138;6.008;2024-02-23T07:17:25;7.12;78.05
66312;HTU21D;53114;51.138;6.008;2024-02-23T07:19:51;7.17;78.70
66312;HTU21D;53114;51.138;6.008;2024-02-23T07:22:18;7.16;78.24
66312;HTU21D;53114;51.138;6.008;2024-02-23T07:24:46;7.16;78.54
66312;HTU21D;53114;51.138;6.008;2024-02-23T07:27:12;7.18;79.49
66312;HTU21D;53114;51.138;6.008;2024-02-23T07:29:38;7.28;79.95
66312;HTU21D;53114;51.138;6.008;2024-02-23T07:32:04;7.26;77.37
66312;HTU21D;53114;51.138;6.008;2024-02-23T07:34:31;7.24;78.35
66312;HTU21D;53114;51.138;6.008;2024-02-23T07:36:57;7.18;79.04
66312;HTU21D;53114;51.138;6.008;2024-02-23T07:39:23;7.04;78.93
66312;HTU21D;53114;51.138;6.008;2024-02-23T07:41:50;7.04;79.60
66312;HTU21D;53114;51.138;6.008;2024-02-23T07:44:16;6.94;80.60
66312;HTU21D;53114;51.138;6.008;2024-02-23T07:46:42;6.98;79.29
66312;HTU21D;53114;51.138;6.008;2024-02-23T07:49:09;7.05;81.22
66312;HTU21D;53114;51.138;6.008;2024-02-23T07:51:35;7.15;80.33
66312;HTU21D;53114;51.138;6.008;2024-02-23T07:54:01;7.09;80.67
66312;HTU21D;53114;51.138;6.008;2024-02-23T07:56:27;7.13;80.91
66312;HTU21D;53114;51.138;6.008;2024-02-23T07:58:54;7.03;80.61
66312;HTU21D;53114;51.138;6.008;2024-02-23T08:01:20;7.08;79.94
66312;HTU21D;53114;51.138;6.008;2024-02-23T08:03:45;7.09;80.64
66312;HTU21D;53114;51.138;6.008;2024-02-23T08:06:12;7.19;79.96
66312;HTU21D;53114;51.138;6.008;2024-02-23T08:08:38;7.40;79.14
66312;HTU21D;53114;51.138;6.008;2024-02-23T08:11:05;7.46;78.76
66312;HTU21D;53114;51.138;6.008;2024-02-23T08:13:31;7.52;75.91
66312;HTU21D;53114;51.138;6.008;2024-02-23T08:15:57;7.67;78.23
66312;HTU21D;53114;51.138;6.008;2024-02-23T08:18:23;8.07;75.83
66312;HTU21D;53114;51.138;6.008;2024-02-23T08:20:49;8.17;74.15
66312;HTU21D;53114;51.138;6.008;2024-02-23T08:23:15;8.17;73.81
66312;HTU21D;53114;51.138;6.008;2024-02-23T08:25:41;8.04;73.44
66312;HTU21D;53114;51.138;6.008;2024-02-23T08:28:07;8.00;75.21
66312;HTU21D;53114;51.138;6.008;2024-02-23T08:30:33;8.13;75.68
66312;HTU21D;53114;51.138;6.008;2024-02-23T08:32:59;8.03;73.09
66312;HTU21D;53114;51.138;6.008;2024-02-23T08:35:26;8.18;73.61
66312;HTU21D;53114;51.138;6.008;2024-02-23T08:37:52;8.01;73.08
66312;HTU21D;53114;51.138;6.008;2024-02-23T08:40:18;7.86;74.81
66312;HTU21D;53114;51.138;6.008;2024-02-23T08:42:44;7.99;76.94
66312;HTU21D;53114;51.138;6.008;2024-02-23T08:45:10;7.82;77.14
66312;HTU21D;53114;51.138;6.008;2024-02-23T08:47:41;7.89;75.99
66312;HTU21D;53114;51.138;6.008;2024-02-23T08:50:07;8.09;77.11
66312;HTU21D;53114;51.138;6.008;2024-02-23T08:52:33;8.03;72.45
66312;HTU21D;53114;51.138;6.008;2024-02-23T08:54:58;8.20;72.64
66312;HTU21D;53114;51.138;6.008;2024-02-23T08:57:27;7.98;73.66
66312;HTU21D;53114;51.138;6.008;2024-02-23T08:59:53;7.85;73.87
66312;HTU21D;53114;51.138;6.008;2024-02-23T09:02:19;7.90;74.02
66312;HTU21D;53114;51.138;6.008;2024-02-23T09:04:45;8.00;73.61
66312;HTU21D;53114;51.138;6.008;2024-02-23T09:07:12;8.14;73.61
66312;HTU21D;53114;51.138;6.008;2024-02-23T09:09:38;8.36;72.50
66312;HTU21D;53114;51.138;6.008;2024-02-23T09:12:04;8.52;71.80
66312;HTU21D;53114;51.138;6.008;2024-02-23T09:14:32;8.57;72.46
66312;HTU21D;53114;51.138;6.008;2024-02-23T09:16:58;8.78;70.93
66312;HTU21D;53114;51.138;6.008;2024-02-23T09:19:24;8.76;70.85
66312;HTU21D;53114;51.138;6.008;2024-02-23T09:21:50;8.64;71.06
66312;HTU21D;53114;51.138;6.008;2024-02-23T09:24:16;9.03;69.92
66312;HTU21D;53114;51.138;6.008;2024-02-23T09:26:46;9.14;69.73
66312;HTU21D;53114;51.138;6.008;2024-02-23T09:29:12;9.02;68.41
66312;HTU21D;53114;51.138;6.008;2024-02-23T09:31:38;8.85;67.29
66312;HTU21D;53114;51.138;6.008;2024-02-23T09:34:04;8.89;69.78
66312;HTU21D;53114;51.138;6.008;2024-02-23T09:36:30;8.79;68.40
66312;HTU21D;53114;51.138;6.008;2024-02-23T09:38:56;8.71;68.09
66312;HTU21D;53114;51.138;6.008;2024-02-23T09:41:23;8.79;69.40
66312;HTU21D;53114;51.138;6.008;2024-02-23T09:43:50;8.79;68.71
66312;HTU21D;53114;51.138;6.008;2024-02-23T09:46:17;8.56;68.88
66312;HTU21D;53114;51.138;6.008;2024-02-23T09:48:44;8.45;69.39
66312;HTU21D;53114;51.138;6.008;2024-02-23T09:51:11;8.39;69.93
66312;HTU21D;53114;51.138;6.008;2024-02-23T09:53:38;8.44;69.95
66312;HTU21D;53114;51.138;6.008;2024-02-23T09:56:05;8.58;70.15
66312;HTU21D;53114;51.138;6.008;2024-02-23T09:58:32;8.55;70.46
66312;HTU21D;53114;51.138;6.008;2024-02-23T10:01:02;9.09;68.42
66312;HTU21D;53114;51.138;6.008;2024-02-23T10:03:29;9.59;67.48
66312;HTU21D;53114;51.138;6.008;2024-02-23T10:05:59;9.91;65.36
66312;HTU21D;53114;51.138;6.008;2024-02-23T10:08:28;9.91;63.05
66312;HTU21D;53114;51.138;6.008;2024-02-23T10:10:55;10.16;62.99
66312;HTU21D;53114;51.138;6.008;2024-02-23T10:13:24;10.09;64.47
66312;HTU21D;53114;51.138;6.008;2024-02-23T10:15:51;9.79;63.68
66312;HTU21D;53114;51.138;6.008;2024-02-23T10:18:18;9.78;62.18
66312;HTU21D;53114;51.138;6.008;2024-02-23T10:20:44;9.51;65.68
66312;HTU21D;53114;51.138;6.008;2024-02-23T10:23:10;9.53;65.53
66312;HTU21D;53114;51.138;6.008;2024-02-23T10:25:37;9.56;66.16
66312;HTU21D;53114;51.138;6.008;2024-02-23T10:28:06;9.38;65.04
66312;HTU21D;53114;51.138;6.008;2024-02-23T10:30:33;9.52;64.80
66312;HTU21D;53114;51.138;6.008;2024-02-23T10:32:59;9.53;66.04
66312;HTU21D;53114;51.138;6.008;2024-02-23T10:35:26;9.33;66.24
66312;HTU21D;53114;51.138;6.008;2024-02-23T10:37:56;9.22;66.32
66312;HTU21D;53114;51.138;6.008;2024-02-23T10:40:22;9.17;66.81
66312;HTU21D;53114;51.138;6.008;2024-02-23T10:42:49;9.11;66.68
66312;HTU21D;53114;51.138;6.008;2024-02-23T10:45:18;9.18;67.36
66312;HTU21D;53114;51.138;6.008;2024-02-23T10:47:45;9.16;67.98
66312;HTU21D;53114;51.138;6.008;2024-02-23T10:50:12;9.16;68.65
66312;HTU21D;53114;51.138;6.008;2024-02-23T10:52:44;9.02;67.22
66312;HTU21D;53114;51.138;6.008;2024-02-23T10:55:12;8.90;68.72
66312;HTU21D;53114;51.138;6.008;2024-02-23T10:57:38;8.79;67.78
66312;HTU21D;53114;51.138;6.008;2024-02-23T11:00:06;8.93;67.43
66312;HTU21D;53114;51.138;6.008;2024-02-23T11:02:48;8.90;66.40
66312;HTU21D;53114;51.138;6.008;2024-02-23T11:05:15;8.90;67.83
66312;HTU21D;53114;51.138;6.008;2024-02-23T11:07:42;9.00;68.12
66312;HTU21D;53114;51.138;6.008;2024-02-23T11:10:08;9.10;67.98
66312;HTU21D;53114;51.138;6.008;2024-02-23T11:12:37;9.06;66.24
66312;HTU21D;53114;51.138;6.008;2024-02-23T11:15:03;9.18;67.74
66312;HTU21D;53114;51.138;6.008;2024-02-23T11:17:35;9.17;67.44
66312;HTU21D;53114;51.138;6.008;2024-02-23T11:20:04;9.08;66.23
66312;HTU21D;53114;51.138;6.008;2024-02-23T11:22:33;9.01;67.37
66312;HTU21D;53114;51.138;6.008;2024-02-23T11:25:04;9.07;68.16
66312;HTU21D;53114;51.138;6.008;2024-02-23T11:27:38;9.10;68.06
66312;HTU21D;53114;51.138;6.008;2024-02-23T11:30:08;9.07;68.41
66312;HTU21D;53114;51.138;6.008;2024-02-23T11:32:40;9.16;67.79
66312;HTU21D;53114;51.138;6.008;2024-02-23T11:35:08;9.29;68.04
66312;HTU21D;53114;51.138;6.008;2024-02-23T11:40:19;9.27;67.08
66312;HTU21D;53114;51.138;6.008;2024-02-23T11:42:46;9.26;67.18
66312;HTU21D;53114;51.138;6.008;2024-02-23T11:45:13;9.29;67.03
66312;HTU21D;53114;51.138;6.008;2024-02-23T11:47:39;9.37;67.20
66312;HTU21D;53114;51.138;6.008;2024-02-23T11:50:09;9.45;67.02
66312;HTU21D;53114;51.138;6.008;2024-02-23T11:52:39;9.52;67.24
66312;HTU21D;53114;51.138;6.008;2024-02-23T11:55:06;9.52;67.77
66312;HTU21D;53114;51.138;6.008;2024-02-23T11:57:34;9.46;66.19
66312;HTU21D;53114;51.138;6.008;2024-02-23T12:00:02;9.45;65.91
66312;HTU21D;53114;51.138;6.008;2024-02-23T12:02:31;9.48;66.86
66312;HTU21D;53114;51.138;6.008;2024-02-23T12:04:56;9.63;67.39
66312;HTU21D;53114;51.138;6.008;2024-02-23T12:07:22;9.61;66.26
66312;HTU21D;53114;51.138;6.008;2024-02-23T12:09:48;9.77;67.03
66312;HTU21D;53114;51.138;6.008;2024-02-23T12:12:15;9.71;65.10
66312;HTU21D;53114;51.138;6.008;2024-02-23T12:14:41;9.76;66.25
66312;HTU21D;53114;51.138;6.008;2024-02-23T12:17:08;9.82;66.91
66312;HTU21D;53114;51.138;6.008;2024-02-23T12:19:40;9.79;67.17
66312;HTU21D;53114;51.138;6.008;2024-02-23T12:22:07;9.66;65.40
66312;HTU21D;53114;51.138;6.008;2024-02-23T12:24:34;9.78;66.62
66312;HTU21D;53114;51.138;6.008;2024-02-23T12:27:00;9.71;66.52
66312;HTU21D;53114;51.138;6.008;2024-02-23T12:29:26;9.71;65.78
66312;HTU21D;53114;51.138;6.008;2024-02-23T12:32:05;9.66;64.79
66312;HTU21D;53114;51.138;6.008;2024-02-23T12:34:31;9.66;66.81
66312;HTU21D;53114;51.138;6.008;2024-02-23T12:36:57;9.78;66.01
66312;HTU21D;53114;51.138;6.008;2024-02-23T12:39:24;9.85;66.62
66312;HTU21D;53114;51.138;6.008;2024-02-23T12:41:50;9.64;65.43
66312;HTU21D;53114;51.138;6.008;2024-02-23T12:44:16;9.56;65.52
66312;HTU21D;53114;51.138;6.008;2024-02-23T12:46:42;9.53;64.85
66312;HTU21D;53114;51.138;6.008;2024-02-23T12:49:08;9.48;65.59
66312;HTU21D;53114;51.138;6.008;2024-02-23T12:51:34;9.54;65.66
66312;HTU21D;53114;51.138;6.008;2024-02-23T12:54:00;9.51;65.77
66312;HTU21D;53114;51.138;6.008;2024-02-23T12:56:26;9.57;65.82
66312;HTU21D;53114;51.138;6.008;2024-02-23T12:58:52;9.64;66.71
66312;HTU21D;53114;51.138;6.008;2024-02-23T13:01:19;9.59;66.38
66312;HTU21D;53114;51.138;6.008;2024-02-23T13:03:45;9.69;66.43
66312;HTU21D;53114;51.138;6.008;2024-02-23T13:06:11;9.83;66.33
66312;HTU21D;53114;51.138;6.008;2024-02-23T13:08:39;9.88;65.82
66312;HTU21D;53114;51.138;6.008;2024-02-23T13:11:06;9.99;65.85
66312;HTU21D;53114;51.138;6.008;2024-02-23T13:13:32;10.11;65.30
66312;HTU21D;53114;51.138;6.008;2024-02-23T13:15:58;10.18;65.53
66312;HTU21D;53114;51.138;6.008;2024-02-23T13:18:24;10.22;65.01
66312;HTU21D;53114;51.138;6.008;2024-02-23T13:20:50;10.33;62.96
66312;HTU21D;53114;51.138;6.008;2024-02-23T13:23:17;10.28;64.08
66312;HTU21D;53114;51.138;6.008;2024-02-23T13:25:44;10.30;64.25
66312;HTU21D;53114;51.138;6.008;2024-02-23T13:28:10;10.38;62.66
66312;HTU21D;53114;51.138;6.008;2024-02-23T13:30:36;10.36;64.52
66312;HTU21D;53114;51.138;6.008;2024-02-23T13:33:03;10.42;64.82
66312;HTU21D;53114;51.138;6.008;2024-02-23T13:35:30;10.41;64.04
66312;HTU21D;53114;51.138;6.008;2024-02-23T13:37:56;10.42;63.66
66312;HTU21D;53114;51.138;6.008;2024-02-23T13:40:25;10.56;64.01
66312;HTU21D;53114;51.138;6.008;2024-02-23T13:42:51;10.66;61.93
66312;HTU21D;53114;51.138;6.008;2024-02-23T13:45:19;10.88;63.71
66312;HTU21D;53114;51.138;6.008;2024-02-23T13:47:56;11.12;62.95
66312;HTU21D;53114;51.138;6.008;2024-02-23T13:50:23;11.17;61.79
66312;HTU21D;53114;51.138;6.008;2024-02-23T13:52:50;11.11;62.86
66312;HTU21D;53114;51.138;6.008;2024-02-23T13:55:16;11.07;64.99
66312;HTU21D;53114;51.138;6.008;2024-02-23T13:57:42;10.97;61.36
66312;HTU21D;53114;51.138;6.008;2024-02-23T14:00:08;10.95;62.16
66312;HTU21D;53114;51.138;6.008;2024-02-23T14:02:38;10.94;62.27
66312;HTU21D;53114;51.138;6.008;2024-02-23T14:05:06;10.82;62.34
66312;HTU21D;53114;51.138;6.008;2024-02-23T14:07:33;10.81;63.73
66312;HTU21D;53114;51.138;6.008;2024-02-23T14:09:59;10.64;64.02
66312;HTU21D;53114;51.138;6.008;2024-02-23T14:12:25;10.56;63.56
66312;HTU21D;53114;51.138;6.008;2024-02-23T14:14:52;10.45;64.34
66312;HTU21D;53114;51.138;6.008;2024-02-23T14:17:17;10.31;63.99
66312;HTU21D;53114;51.138;6.008;2024-02-23T14:19:43;10.18;65.01
66312;HTU21D;53114;51.138;6.008;2024-02-23T14:22:09;10.21;65.17
66312;HTU21D;53114;51.138;6.008;2024-02-23T14:24:35;10.23;65.98
66312;HTU21D;53114;51.138;6.008;2024-02-23T14:27:01;10.11;67.14
66312;HTU21D;53114;51.138;6.008;2024-02-23T14:29:27;10.23;65.89
66312;HTU21D;53114;51.138;6.008;2024-02-23T14:31:53;10.30;65.60
66312;HTU21D;53114;51.138;6.008;2024-02-23T14:34:19;10.44;64.41
66312;HTU21D;53114;51.138;6.008;2024-02-23T14:36:48;10.53;62.84
66312;HTU21D;53114;51.138;6.008;2024-02-23T14:39:14;10.57;63.52
66312;HTU21D;53114;51.138;6.008;2024-02-23T14:41:40;10.52;63.38
66312;HTU21D;53114;51.138;6.008;2024-02-23T14:44:05;10.60;63.84
66312;HTU21D;53114;51.138;6.008;2024-02-23T14:46:31;10.45;63.10
66312;HTU21D;53114;51.138;6.008;2024-02-23T14:48:57;10.34;63.65
66312;HTU21D;53114;51.138;6.008;2024-02-23T14:51:23;10.53;63.85
66312;HTU21D;53114;51.138;6.008;2024-02-23T14:53:49;10.59;64.24
66312;HTU21D;53114;51.138;6.008;2024-02-23T14:56:15;10.55;63.40
66312;HTU21D;53114;51.138;6.008;2024-02-23T14:58:41;10.39;65.93
66312;HTU21D;53114;51.138;6.008;2024-02-23T15:01:07;10.24;67.04
66312;HTU21D;53114;51.138;6.008;2024-02-23T15:03:33;10.13;67.33
66312;HTU21D;53114;51.138;6.008;2024-02-23T15:05:59;9.94;68.81
66312;HTU21D;53114;51.138;6.008;2024-02-23T15:08:27;9.75;68.44
66312;HTU21D;53114;51.138;6.008;2024-02-23T15:10:53;9.72;69.86
66312;HTU21D;53114;51.138;6.008;2024-02-23T15:13:19;9.71;69.23
66312;HTU21D;53114;51.138;6.008;2024-02-23T15:15:47;9.72;69.35
66312;HTU21D;53114;51.138;6.008;2024-02-23T15:18:13;9.68;70.26
66312;HTU21D;53114;51.138;6.008;2024-02-23T15:20:39;9.83;69.65
66312;HTU21D;53114;51.138;6.008;2024-02-23T15:23:05;9.81;68.99
66312;HTU21D;53114;51.138;6.008;2024-02-23T15:25:32;9.80;69.06
66312;HTU21D;53114;51.138;6.008;2024-02-23T15:27:59;9.70;68.49